Aérodrome :
LOGIN :

S'inscrire | Disclaimer

   EN    FR    IT 

 










Légende :    VFR   VFR Marginal   IFR   IFR Intensif   IFR Très Intensif
Visi : 
Plafond : 
>= 8 km
>= 3000ft
5 à 8 km
1000 à 3000 ft
1500m à 5 km
500 à 1000 ft
800 à 1500m
200 à 500 ft
< 800m
< 200 ft
Symboles :   Orages  Brouillard  Fortes neiges  Fortes précipitations  Vent > 20 kt
SIGMETs :   Divers  Orages  Givrage  Turbulence  Onde Orograph.  Cendres Volcan.






- Altitude de l'aérodrome : 218 ft
- Code IATA : LBG


LFPB - Paris / Le Bourget

DERNIER METAR :
  • 140400Z AUTO 25004KT 230V290 9999 BKN015 OVC020 20/18 Q1013 BECMG BKN014

METARs EXPIRÉS :
  • 140330Z AUTO 24005KT 9999 BKN021 20/18 Q1013 BECMG BKN014
  • 140300Z AUTO 23006KT 9999 SCT016/// SCT024/// BKN120/// 20/18 Q1013 BECMG BKN014
  • 140230Z AUTO 24008KT 9999 FEW018 SCT027 BKN120 20/18 Q1013 BECMG BKN014
  • 140200Z AUTO 24007KT 9999 BKN014 BKN120 BKN150 20/18 Q1013 NOSIG
  • 140130Z AUTO 23008KT 9999 BKN013 BKN018 BKN130 20/18 Q1013 NOSIG

TAF AMD TAF LFPB
Valide du 14 à 03h jusqu'au 15 à 00h UTC


140339Z 1403/1424 22005KT 9999 FEW012 SCT025
TEMPO 1403/1408 BKN012
PROB30
TEMPO 1403/1408 BKN008
TEMPO 1410/1420 SCT020TCU
PROB30
TEMPO 1411/1417 4000 TSRA SCT025CB
TEMPO 1420/1424 CAVOK
ATIS : +33 1 48 62 43 92



MET'MAP, la Météo Aéronautique d'un coup d'oeil ! - Copyright ORBIFLY Décembre 2007 - Disclaimer

ORBIFLY MET'MAP TEAM :

Programmation & Développement : Alexandra Zaïnal
Sur une idée originale de : Baudouin d'Aumeries
Assistance à la programmation : Marc-Olivier Méhu
Soutien technique & logistique : Manuel Goepfert

Contact : metmap@orbifly.com




SOURCES & CREDITS :

   NOAA